createdAt,value
2023-11-07T00:00:13.784Z,76.71
2023-11-07T00:02:41.062Z,76.54
2023-11-07T00:05:10.331Z,76.40
2023-11-07T00:07:37.869Z,76.14
2023-11-07T00:10:04.971Z,76.17
2023-11-07T00:12:31.785Z,76.34
2023-11-07T00:14:58.681Z,76.59
2023-11-07T00:17:25.391Z,76.53
2023-11-07T00:19:52.040Z,76.22
2023-11-07T00:22:19.309Z,76.44
2023-11-07T00:24:46.515Z,77.03
2023-11-07T00:27:13.177Z,76.73
2023-11-07T00:29:39.881Z,76.63
2023-11-07T00:32:07.151Z,76.85
2023-11-07T00:34:33.881Z,76.98
2023-11-07T00:37:00.552Z,77.19
2023-11-07T00:39:27.190Z,76.83
2023-11-07T00:41:53.940Z,77.38
2023-11-07T00:44:20.565Z,77.80
2023-11-07T00:46:47.712Z,77.34
2023-11-07T00:49:14.830Z,77.09
2023-11-07T00:51:41.499Z,77.39
2023-11-07T00:54:09.460Z,77.67
2023-11-07T00:56:36.256Z,77.59
2023-11-07T00:59:04.193Z,77.70
2023-11-07T01:01:32.754Z,77.92
2023-11-07T01:03:59.710Z,77.59
2023-11-07T01:06:26.690Z,77.83
2023-11-07T01:08:53.556Z,77.53
2023-11-07T01:11:20.188Z,77.15
2023-11-07T01:13:46.850Z,76.72
2023-11-07T01:16:13.639Z,76.97
2023-11-07T01:18:40.520Z,76.73
2023-11-07T01:21:07.394Z,76.72
2023-11-07T01:23:34.286Z,76.66
2023-11-07T01:26:04.095Z,76.95
2023-11-07T01:28:30.868Z,77.16
2023-11-07T01:30:57.600Z,77.27
2023-11-07T01:33:24.357Z,77.81
2023-11-07T01:35:51.087Z,77.85
2023-11-07T01:38:17.764Z,78.09
2023-11-07T01:40:44.386Z,78.46
2023-11-07T01:43:17.348Z,78.40
2023-11-07T01:45:44.245Z,78.37
2023-11-07T01:48:14.592Z,78.12
2023-11-07T01:50:41.729Z,78.55
2023-11-07T01:53:08.446Z,79.04
2023-11-07T01:55:35.136Z,80.37
2023-11-07T01:58:01.983Z,80.06
2023-11-07T02:00:29.174Z,80.68
2023-11-07T02:02:56.700Z,80.86
2023-11-07T02:05:23.379Z,80.43
2023-11-07T02:07:50.056Z,81.74
2023-11-07T02:10:16.680Z,81.38
2023-11-07T02:12:43.360Z,80.89
2023-11-07T02:15:19.568Z,81.12
2023-11-07T02:17:46.499Z,80.76
2023-11-07T02:20:16.876Z,80.92
2023-11-07T02:22:43.525Z,80.66
2023-11-07T02:25:17.570Z,80.58
2023-11-07T02:27:44.290Z,80.08
2023-11-07T02:30:13.590Z,79.68
2023-11-07T02:32:40.887Z,80.26
2023-11-07T02:35:08.165Z,79.60
2023-11-07T02:37:35.485Z,79.62
2023-11-07T02:40:02.275Z,79.53
2023-11-07T02:42:29.743Z,79.45
2023-11-07T02:44:57.309Z,79.44
2023-11-07T02:47:24.508Z,79.08
2023-11-07T02:49:51.350Z,79.33
2023-11-07T02:52:18.629Z,79.66
2023-11-07T02:54:46.417Z,80.55
2023-11-07T02:57:13.392Z,80.29
2023-11-07T02:59:40.733Z,80.04
2023-11-07T03:02:07.700Z,79.98
2023-11-07T03:04:34.369Z,80.46
2023-11-07T03:07:01.927Z,80.33
2023-11-07T03:09:28.661Z,80.59
2023-11-07T03:11:55.313Z,80.71
2023-11-07T03:14:22.094Z,80.61
2023-11-07T03:16:48.870Z,80.37
2023-11-07T03:19:15.652Z,80.96
2023-11-07T03:21:42.349Z,80.84
2023-11-07T03:24:09.845Z,80.01
2023-11-07T03:26:36.832Z,79.83
2023-11-07T03:29:03.764Z,79.81
2023-11-07T03:31:31.419Z,79.28
2023-11-07T03:33:58.159Z,78.91
2023-11-07T03:36:24.826Z,78.77
2023-11-07T03:38:51.994Z,78.64
2023-11-07T03:41:18.758Z,78.54
2023-11-07T03:43:45.446Z,78.68
2023-11-07T03:46:13.693Z,78.65
2023-11-07T03:48:40.397Z,78.85
2023-11-07T03:51:07.329Z,78.90
2023-11-07T03:53:34.146Z,79.03
2023-11-07T03:56:01.095Z,78.99
2023-11-07T03:58:27.756Z,79.39
2023-11-07T04:00:54.526Z,79.63
2023-11-07T04:03:23.540Z,79.84
2023-11-07T04:05:50.622Z,80.08
2023-11-07T04:08:17.542Z,79.70
2023-11-07T04:10:44.373Z,79.90
2023-11-07T04:13:11.420Z,80.05
2023-11-07T04:15:38.133Z,79.76
2023-11-07T04:18:04.973Z,79.46
2023-11-07T04:20:34.316Z,80.07
2023-11-07T04:23:01.228Z,80.00
2023-11-07T04:25:27.864Z,80.29
2023-11-07T04:27:54.534Z,80.47
2023-11-07T04:30:21.554Z,80.05
2023-11-07T04:32:48.560Z,80.58
2023-11-07T04:35:16.451Z,80.54
2023-11-07T04:37:43.441Z,80.63
2023-11-07T04:40:10.570Z,80.60
2023-11-07T04:42:38.044Z,81.01
2023-11-07T04:45:08.333Z,81.05
2023-11-07T04:47:35.312Z,81.52
2023-11-07T04:50:02.237Z,81.87
2023-11-07T04:52:28.914Z,81.62
2023-11-07T04:54:55.559Z,82.37
2023-11-07T04:57:22.384Z,82.02
2023-11-07T04:59:49.199Z,81.52
2023-11-07T05:02:16.850Z,81.51
2023-11-07T05:04:47.027Z,81.58
2023-11-07T05:07:14.630Z,80.63
2023-11-07T05:09:41.347Z,80.66
2023-11-07T05:12:09.409Z,80.49
2023-11-07T05:14:36.222Z,79.79
2023-11-07T05:17:02.888Z,79.84
2023-11-07T05:19:29.593Z,80.05
2023-11-07T05:21:56.243Z,79.85
2023-11-07T05:24:24.310Z,80.11
2023-11-07T05:26:51.025Z,80.13
2023-11-07T05:29:17.853Z,79.85
2023-11-07T05:31:44.841Z,80.28
2023-11-07T05:34:11.766Z,79.99
2023-11-07T05:36:38.688Z,79.69
2023-11-07T05:39:05.536Z,80.06
2023-11-07T05:41:32.240Z,79.66
2023-11-07T05:43:58.944Z,79.66
2023-11-07T05:46:25.601Z,80.04
2023-11-07T05:48:53.127Z,79.69
2023-11-07T05:51:20.929Z,79.76
2023-11-07T05:53:47.813Z,79.69
2023-11-07T05:56:14.511Z,80.20
2023-11-07T05:58:41.517Z,80.06
2023-11-07T06:01:08.321Z,79.62
2023-11-07T06:03:35.336Z,79.94
2023-11-07T06:06:03.284Z,79.67
2023-11-07T06:08:30.156Z,79.83
2023-11-07T06:10:56.951Z,79.66
2023-11-07T06:13:23.694Z,80.11
2023-11-07T06:15:50.336Z,79.94
2023-11-07T06:18:17.152Z,79.66
2023-11-07T06:20:44.013Z,79.65
2023-11-07T06:23:10.987Z,79.74
2023-11-07T06:25:37.698Z,79.87
2023-11-07T06:28:09.628Z,79.60
2023-11-07T06:30:37.572Z,79.22
2023-11-07T06:33:04.781Z,79.57
2023-11-07T06:35:32.389Z,79.34
2023-11-07T06:37:59.455Z,78.95
2023-11-07T06:40:26.187Z,79.23
2023-11-07T06:42:54.074Z,78.91
2023-11-07T06:45:20.846Z,79.21
2023-11-07T06:47:48.267Z,78.86
2023-11-07T06:50:15.769Z,78.83
2023-11-07T06:52:43.820Z,78.73
2023-11-07T06:55:13.661Z,78.57
2023-11-07T06:57:41.223Z,78.49
2023-11-07T07:00:09.998Z,78.13
2023-11-07T07:02:37.295Z,78.49
2023-11-07T07:05:05.358Z,78.44
2023-11-07T07:07:32.294Z,78.09
2023-11-07T07:09:59.380Z,78.45
2023-11-07T07:12:26.184Z,78.67
2023-11-07T07:14:53.182Z,78.91
2023-11-07T07:17:20.516Z,79.26
2023-11-07T07:19:47.360Z,79.36
2023-11-07T07:22:14.041Z,79.51
2023-11-07T07:24:41.716Z,79.17
2023-11-07T07:27:12.954Z,78.47
2023-11-07T07:29:39.751Z,78.92
2023-11-07T07:32:06.598Z,77.66
2023-11-07T07:34:33.640Z,78.08
2023-11-07T07:37:00.267Z,77.09
2023-11-07T07:39:35.983Z,76.03
2023-11-07T07:42:12.022Z,73.13
2023-11-07T07:44:40.688Z,70.18
2023-11-07T07:47:09.066Z,66.10
2023-11-07T07:49:38.092Z,63.77
2023-11-07T07:52:10.406Z,57.97
2023-11-07T07:57:10.209Z,52.87
2023-11-07T07:59:42.044Z,49.84
2023-11-07T08:02:09.208Z,48.49
2023-11-07T08:04:35.893Z,46.80
2023-11-07T08:07:02.606Z,43.88
2023-11-07T08:09:30.379Z,41.13
2023-11-07T08:12:01.488Z,40.60
2023-11-07T08:14:30.244Z,40.18
2023-11-07T08:16:56.982Z,39.36
2023-11-07T08:19:25.750Z,38.39
2023-11-07T08:21:52.486Z,37.07
2023-11-07T08:24:19.278Z,36.32
2023-11-07T08:26:46.100Z,34.38
2023-11-07T08:29:12.742Z,33.79
2023-11-07T08:31:39.892Z,33.45
2023-11-07T08:34:10.493Z,33.04
2023-11-07T08:36:43.810Z,32.61
2023-11-07T08:39:25.556Z,31.95
2023-11-07T08:41:52.423Z,31.35
2023-11-07T08:44:20.373Z,29.63
2023-11-07T08:46:47.098Z,29.70
2023-11-07T08:49:15.052Z,30.53
2023-11-07T08:51:41.715Z,31.09
2023-11-07T08:54:09.222Z,31.90
2023-11-07T08:56:36.249Z,33.37
2023-11-07T08:59:02.989Z,33.87
2023-11-07T09:01:29.682Z,35.46
2023-11-07T09:03:56.494Z,36.64
2023-11-07T09:06:23.856Z,37.77
2023-11-07T09:08:50.523Z,38.52
2023-11-07T09:11:17.310Z,39.45
2023-11-07T09:13:44.011Z,41.63
2023-11-07T09:16:10.665Z,43.52
2023-11-07T09:18:39.327Z,43.86
2023-11-07T09:21:07.255Z,44.57
2023-11-07T09:23:34.259Z,45.94
2023-11-07T09:26:00.975Z,46.59
2023-11-07T09:28:27.647Z,46.15
2023-11-07T09:30:54.439Z,47.50
2023-11-07T09:33:21.261Z,47.94
2023-11-07T09:35:49.780Z,49.72
2023-11-07T09:38:16.470Z,50.92
2023-11-07T09:40:45.656Z,50.71
2023-11-07T09:43:13.608Z,51.21
2023-11-07T09:45:40.902Z,50.98
2023-11-07T09:48:11.388Z,53.00
2023-11-07T09:50:43.024Z,51.03
2023-11-07T09:53:09.777Z,50.77
2023-11-07T09:55:39.114Z,50.53
2023-11-07T09:58:15.054Z,51.21
2023-11-07T10:00:47.679Z,51.38
2023-11-07T10:03:15.273Z,51.56
2023-11-07T10:05:42.924Z,51.15
2023-11-07T10:08:09.659Z,51.51
2023-11-07T10:10:36.384Z,52.45
2023-11-07T10:13:13.061Z,51.93
2023-11-07T10:15:41.982Z,51.92
2023-11-07T10:18:10.718Z,52.00
2023-11-07T10:20:58.074Z,51.79
2023-11-07T10:23:25.240Z,52.10
2023-11-07T10:25:52.548Z,52.41
2023-11-07T10:28:21.525Z,51.65
2023-11-07T10:30:49.696Z,50.68
2023-11-07T10:33:30.756Z,51.43
2023-11-07T10:36:00.213Z,52.69
2023-11-07T10:38:27.816Z,51.44
2023-11-07T10:40:54.458Z,51.14
2023-11-07T10:43:40.509Z,51.71
2023-11-07T10:46:09.337Z,51.53
2023-11-07T10:48:40.316Z,51.60
2023-11-07T10:51:09.396Z,50.85
2023-11-07T10:53:38.036Z,49.88
2023-11-07T10:56:15.238Z,50.19
2023-11-07T10:58:44.860Z,49.93
2023-11-07T11:01:12.845Z,50.31
2023-11-07T11:03:39.624Z,49.68
2023-11-07T11:06:07.373Z,49.24
2023-11-07T11:08:34.990Z,49.45
2023-11-07T11:11:04.405Z,49.85
2023-11-07T11:13:32.492Z,49.67
2023-11-07T11:15:59.999Z,49.60
2023-11-07T11:18:32.972Z,49.82
2023-11-07T11:21:05.846Z,49.44
2023-11-07T11:23:55.310Z,49.69
2023-11-07T11:26:55.903Z,50.97
2023-11-07T11:29:29.884Z,51.15
2023-11-07T11:31:57.822Z,51.17
2023-11-07T11:34:26.631Z,50.47
2023-11-07T11:37:18.588Z,51.12
2023-11-07T11:39:46.537Z,50.39
2023-11-07T11:42:13.305Z,50.26
2023-11-07T11:44:40.443Z,49.68
2023-11-07T11:47:09.299Z,49.25
2023-11-07T11:49:37.921Z,50.31
2023-11-07T11:52:08.746Z,51.55
2023-11-07T11:54:35.442Z,51.51
2023-11-07T11:57:02.168Z,50.79
2023-11-07T11:59:30.004Z,50.61
2023-11-07T12:01:59.733Z,50.28
2023-11-07T12:04:34.387Z,50.43
2023-11-07T12:07:10.605Z,49.70
2023-11-07T12:09:41.977Z,50.83
2023-11-07T12:12:08.995Z,49.61
2023-11-07T12:14:58.390Z,50.85
2023-11-07T12:17:27.401Z,49.83
2023-11-07T12:20:08.602Z,49.97
2023-11-07T12:22:35.866Z,49.73
2023-11-07T12:25:18.228Z,48.91
2023-11-07T12:27:46.434Z,48.94
2023-11-07T12:30:20.283Z,49.10
2023-11-07T12:32:47.261Z,49.75
2023-11-07T12:35:21.446Z,50.24
2023-11-07T12:37:48.430Z,50.68
2023-11-07T12:40:15.265Z,50.62
2023-11-07T12:42:54.174Z,49.92
2023-11-07T12:45:30.726Z,49.96
2023-11-07T12:47:59.819Z,49.97
2023-11-07T12:50:48.535Z,50.52
2023-11-07T12:53:18.848Z,50.35
2023-11-07T12:55:52.299Z,49.69
2023-11-07T12:58:29.063Z,50.00
2023-11-07T13:01:00.270Z,50.11
2023-11-07T13:03:33.588Z,49.38
2023-11-07T13:06:12.021Z,49.39
2023-11-07T13:08:40.131Z,49.73
2023-11-07T13:11:15.486Z,50.11
2023-11-07T13:13:48.909Z,49.94
2023-11-07T13:16:16.244Z,49.90
2023-11-07T13:18:47.095Z,50.01
2023-11-07T13:21:14.425Z,50.67
2023-11-07T13:23:41.459Z,50.54
2023-11-07T13:26:11.074Z,50.47
2023-11-07T13:28:42.469Z,50.88
2023-11-07T13:31:09.752Z,51.33
2023-11-07T13:33:37.173Z,51.61
2023-11-07T13:36:05.214Z,51.38
2023-11-07T13:38:31.959Z,52.22
2023-11-07T13:40:58.704Z,51.79
2023-11-07T13:43:25.493Z,51.25
2023-11-07T13:45:55.139Z,51.06
2023-11-07T13:48:22.832Z,50.83
2023-11-07T13:50:49.772Z,51.12
2023-11-07T13:53:16.917Z,51.80
2023-11-07T13:55:44.453Z,51.85
2023-11-07T13:58:11.928Z,52.25
2023-11-07T14:00:38.641Z,51.69
2023-11-07T14:03:05.500Z,51.93
2023-11-07T14:05:32.489Z,51.94
2023-11-07T14:08:00.547Z,51.98
2023-11-07T14:10:28.202Z,52.28
2023-11-07T14:12:56.868Z,51.95
2023-11-07T14:15:34.391Z,52.23
2023-11-07T14:18:13.202Z,52.57
2023-11-07T14:20:51.044Z,52.65
2023-11-07T14:23:17.822Z,52.26
2023-11-07T14:25:45.224Z,52.56
2023-11-07T14:28:12.588Z,52.77
2023-11-07T14:30:46.027Z,52.75
2023-11-07T14:33:20.141Z,53.56
2023-11-07T14:35:47.448Z,54.38
2023-11-07T14:38:17.075Z,53.93
2023-11-07T14:40:46.928Z,55.27
2023-11-07T14:43:17.326Z,55.25
2023-11-07T14:45:45.467Z,55.57
2023-11-07T14:48:12.760Z,55.10
2023-11-07T14:50:40.539Z,54.63
2023-11-07T14:53:07.793Z,54.93
2023-11-07T14:55:36.288Z,54.82
2023-11-07T14:58:06.925Z,54.65
2023-11-07T15:00:41.643Z,55.29
2023-11-07T15:03:11.407Z,55.57
2023-11-07T15:05:40.421Z,55.61
2023-11-07T15:08:08.970Z,55.83
2023-11-07T15:10:36.823Z,55.84
2023-11-07T15:13:06.360Z,56.13
2023-11-07T15:15:34.412Z,56.34
2023-11-07T15:18:11.501Z,56.83
2023-11-07T15:20:41.350Z,56.65
2023-11-07T15:23:08.618Z,57.55
2023-11-07T15:25:36.305Z,57.44
2023-11-07T15:28:03.592Z,57.16
2023-11-07T15:30:31.882Z,57.83
2023-11-07T15:33:01.031Z,57.85
2023-11-07T15:35:30.320Z,57.88
2023-11-07T15:37:57.109Z,57.75
2023-11-07T15:40:24.345Z,58.10
2023-11-07T15:42:51.360Z,58.65
2023-11-07T15:45:19.973Z,58.80
2023-11-07T15:47:47.389Z,58.29
2023-11-07T15:50:18.318Z,59.36
2023-11-07T15:52:55.840Z,58.85
2023-11-07T15:55:31.464Z,58.90
2023-11-07T15:57:58.146Z,59.50
2023-11-07T16:00:27.697Z,59.99
2023-11-07T16:02:54.636Z,59.71
2023-11-07T16:05:23.316Z,60.15
2023-11-07T16:07:50.191Z,59.71
2023-11-07T16:10:16.876Z,60.17
2023-11-07T16:12:43.827Z,60.46
2023-11-07T16:15:10.933Z,60.82
2023-11-07T16:17:38.222Z,61.44
2023-11-07T16:20:09.505Z,61.25
2023-11-07T16:22:36.162Z,61.12
2023-11-07T16:25:04.394Z,61.47
2023-11-07T16:27:31.093Z,61.65
2023-11-07T16:30:00.518Z,61.62
2023-11-07T16:32:27.895Z,62.22
2023-11-07T16:34:54.588Z,62.19
2023-11-07T16:37:21.253Z,62.29
2023-11-07T16:39:47.951Z,63.07
2023-11-07T16:42:14.823Z,62.58
2023-11-07T16:44:43.435Z,63.14
2023-11-07T16:47:11.428Z,63.14
2023-11-07T16:49:42.678Z,63.40
2023-11-07T16:52:12.309Z,63.80
2023-11-07T16:54:39.370Z,64.37
2023-11-07T16:57:07.089Z,64.59
2023-11-07T16:59:34.503Z,65.16
2023-11-07T17:02:01.236Z,64.79
2023-11-07T17:04:29.136Z,65.27
2023-11-07T17:06:55.960Z,65.88
2023-11-07T17:09:22.683Z,65.48
2023-11-07T17:11:49.323Z,66.21
2023-11-07T17:14:15.999Z,65.82
2023-11-07T17:16:42.620Z,66.20
2023-11-07T17:19:09.440Z,66.75
2023-11-07T17:21:36.387Z,67.59
2023-11-07T17:24:03.076Z,67.81
2023-11-07T17:26:33.536Z,66.85
2023-11-07T17:29:00.743Z,67.03
2023-11-07T17:31:27.415Z,67.28
2023-11-07T17:33:54.440Z,67.31
2023-11-07T17:36:21.623Z,67.32
2023-11-07T17:38:48.963Z,66.90
2023-11-07T17:41:15.677Z,67.04
2023-11-07T17:43:42.540Z,67.01
2023-11-07T17:46:10.776Z,67.26
2023-11-07T17:48:37.513Z,67.58
2023-11-07T17:51:07.460Z,67.94
2023-11-07T17:53:34.113Z,68.89
2023-11-07T17:56:00.721Z,68.27
2023-11-07T17:58:27.382Z,68.24
2023-11-07T18:00:54.956Z,68.49
2023-11-07T18:03:22.694Z,68.14
2023-11-07T18:05:49.507Z,67.98
2023-11-07T18:08:16.358Z,68.09
2023-11-07T18:10:43.337Z,67.80
2023-11-07T18:13:12.130Z,68.24
2023-11-07T18:15:41.588Z,68.04
2023-11-07T18:18:08.374Z,68.35
2023-11-07T18:20:35.073Z,68.18
2023-11-07T18:23:10.927Z,70.11
2023-11-07T18:25:38.232Z,69.19
2023-11-07T18:28:05.039Z,69.46
2023-11-07T18:30:31.736Z,69.92
2023-11-07T18:32:58.469Z,70.22
2023-11-07T18:35:25.697Z,69.37
2023-11-07T18:37:52.402Z,69.58
2023-11-07T18:40:19.030Z,69.98
2023-11-07T18:42:45.743Z,70.29
2023-11-07T18:45:14.046Z,69.72
2023-11-07T18:47:41.705Z,70.50
2023-11-07T18:50:09.052Z,69.87
2023-11-07T18:52:36.003Z,69.57
2023-11-07T18:55:06.496Z,70.13
2023-11-07T18:57:33.909Z,69.82
2023-11-07T19:00:00.836Z,70.58
2023-11-07T19:02:28.227Z,70.21
2023-11-07T19:04:55.099Z,69.95
2023-11-07T19:07:21.888Z,70.34
2023-11-07T19:09:50.323Z,70.07
2023-11-07T19:12:17.476Z,70.76
2023-11-07T19:14:44.731Z,71.40
2023-11-07T19:17:11.531Z,70.63
2023-11-07T19:19:38.380Z,71.40
2023-11-07T19:22:05.202Z,71.24
2023-11-07T19:24:32.200Z,71.40
2023-11-07T19:27:00.180Z,71.16
2023-11-07T19:29:27.039Z,71.67
2023-11-07T19:31:54.049Z,72.07
2023-11-07T19:34:21.997Z,71.89
2023-11-07T19:36:49.533Z,72.02
2023-11-07T19:39:16.331Z,72.17
2023-11-07T19:41:44.313Z,72.27
2023-11-07T19:44:13.046Z,72.28
2023-11-07T19:46:39.745Z,72.46
2023-11-07T19:49:09.302Z,74.52
2023-11-07T19:51:36.050Z,73.95
2023-11-07T19:54:04.079Z,73.66
2023-11-07T19:56:31.577Z,73.86
2023-11-07T19:59:00.695Z,73.72
2023-11-07T20:01:28.841Z,74.33
2023-11-07T20:03:57.786Z,74.03
2023-11-07T20:06:24.894Z,73.75
2023-11-07T20:08:51.897Z,74.97
2023-11-07T20:11:18.613Z,74.86
2023-11-07T20:13:45.428Z,74.41
2023-11-07T20:16:12.378Z,74.74
2023-11-07T20:18:39.227Z,74.35
2023-11-07T20:21:05.954Z,74.87
2023-11-07T20:23:34.015Z,75.74
2023-11-07T20:26:00.735Z,75.24
2023-11-07T20:28:27.429Z,75.37
2023-11-07T20:30:54.265Z,75.26
2023-11-07T20:33:21.775Z,75.71
2023-11-07T20:35:48.519Z,75.06
2023-11-07T20:38:15.139Z,75.26
2023-11-07T20:40:41.868Z,74.78
2023-11-07T20:43:10.647Z,75.29
2023-11-07T20:45:40.106Z,75.48
2023-11-07T20:48:08.298Z,75.26
2023-11-07T20:50:35.106Z,75.31
2023-11-07T20:53:04.780Z,75.53
2023-11-07T20:55:31.623Z,75.97
2023-11-07T20:58:02.334Z,75.50
2023-11-07T21:00:35.112Z,75.86
2023-11-07T21:03:02.575Z,75.13
2023-11-07T21:05:29.543Z,75.11
2023-11-07T21:07:56.228Z,75.38
2023-11-07T21:10:23.925Z,75.12
2023-11-07T21:12:51.360Z,74.88
2023-11-07T21:15:18.056Z,75.61
2023-11-07T21:17:44.911Z,75.88
2023-11-07T21:20:11.989Z,75.65
2023-11-07T21:22:50.038Z,76.15
2023-11-07T21:25:16.805Z,76.91
2023-11-07T21:27:43.616Z,76.85
2023-11-07T21:30:12.392Z,76.46
2023-11-07T21:32:39.123Z,76.88
2023-11-07T21:35:10.610Z,76.30
2023-11-07T21:37:38.651Z,76.16
2023-11-07T21:40:08.991Z,76.24
2023-11-07T21:42:37.281Z,76.27
2023-11-07T21:45:05.342Z,76.25
2023-11-07T21:47:32.064Z,76.03
2023-11-07T21:49:58.718Z,75.96
2023-11-07T21:52:25.353Z,76.02
2023-11-07T21:54:52.087Z,76.61
2023-11-07T21:57:18.814Z,75.86
2023-11-07T21:59:45.497Z,76.25
2023-11-07T22:02:12.182Z,76.14
2023-11-07T22:04:40.736Z,76.16
2023-11-07T22:07:07.534Z,76.17
2023-11-07T22:09:34.429Z,76.19
2023-11-07T22:12:01.152Z,76.37
2023-11-07T22:14:27.804Z,76.32
2023-11-07T22:16:54.411Z,76.89
2023-11-07T22:19:21.221Z,76.82
2023-11-07T22:21:47.991Z,76.72
2023-11-07T22:24:15.736Z,76.75
2023-11-07T22:26:42.400Z,76.70
2023-11-07T22:29:09.128Z,76.62
2023-11-07T22:31:35.850Z,76.44
2023-11-07T22:34:02.651Z,76.87
2023-11-07T22:36:29.396Z,76.77
2023-11-07T22:38:56.217Z,76.46
2023-11-07T22:41:23.037Z,76.86
2023-11-07T22:43:49.736Z,76.87
2023-11-07T22:46:16.914Z,76.84
2023-11-07T22:48:43.569Z,76.16
2023-11-07T22:51:10.289Z,76.45
2023-11-07T22:53:36.934Z,76.95
2023-11-07T22:56:03.801Z,76.96
2023-11-07T22:58:30.594Z,77.00
2023-11-07T23:00:57.263Z,77.44
2023-11-07T23:03:26.737Z,77.19
2023-11-07T23:05:53.796Z,77.38
2023-11-07T23:08:20.548Z,77.21
2023-11-07T23:10:47.539Z,77.28
2023-11-07T23:13:19.755Z,77.25
2023-11-07T23:15:49.782Z,77.21
2023-11-07T23:18:16.946Z,77.26
2023-11-07T23:20:45.176Z,76.96
2023-11-07T23:23:11.833Z,77.10
2023-11-07T23:25:38.725Z,77.37
2023-11-07T23:28:05.525Z,77.02
2023-11-07T23:30:32.206Z,77.30
2023-11-07T23:33:01.234Z,76.74
2023-11-07T23:35:28.563Z,77.26
2023-11-07T23:37:57.641Z,77.41
2023-11-07T23:40:25.171Z,77.39
2023-11-07T23:42:51.849Z,77.54
2023-11-07T23:45:20.046Z,77.44
2023-11-07T23:47:46.914Z,77.68
2023-11-07T23:50:13.721Z,77.31
2023-11-07T23:52:40.939Z,77.25
2023-11-07T23:55:09.098Z,77.27
2023-11-07T23:57:36.118Z,77.57
